createdAt,value
2019-03-20T00:00:22.299Z,9.30
2019-03-20T00:02:50.936Z,9.40
2019-03-20T00:05:19.493Z,9.40
2019-03-20T00:07:47.940Z,9.40
2019-03-20T00:10:17.641Z,9.50
2019-03-20T00:12:46.147Z,9.50
2019-03-20T00:15:15.727Z,9.60
2019-03-20T00:17:44.265Z,9.60
2019-03-20T00:20:13.940Z,9.60
2019-03-20T00:22:43.373Z,9.60
2019-03-20T00:25:12.352Z,9.60
2019-03-20T00:27:41.060Z,9.60
2019-03-20T00:30:14.361Z,9.70
2019-03-20T00:32:42.975Z,9.70
2019-03-20T00:35:11.564Z,9.70
2019-03-20T00:37:40.075Z,9.90
2019-03-20T00:40:14.363Z,10.00
2019-03-20T00:42:42.871Z,10.10
2019-03-20T00:45:14.124Z,10.20
2019-03-20T00:47:42.593Z,10.20
2019-03-20T00:50:15.615Z,10.20
2019-03-20T00:52:44.275Z,10.20
2019-03-20T00:55:14.276Z,10.20
2019-03-20T00:57:42.791Z,10.30
2019-03-20T01:00:18.941Z,10.30
2019-03-20T01:02:47.552Z,10.30
2019-03-20T01:05:16.330Z,10.30
2019-03-20T01:07:45.516Z,10.40
2019-03-20T01:10:19.951Z,10.40
2019-03-20T01:12:48.464Z,10.30
2019-03-20T01:15:17.068Z,10.30
2019-03-20T01:17:45.860Z,10.30
2019-03-20T01:20:18.769Z,10.30
2019-03-20T01:22:47.375Z,10.30
2019-03-20T01:25:16.656Z,10.30
2019-03-20T01:27:45.235Z,10.30
2019-03-20T01:30:32.505Z,10.30
2019-03-20T01:33:06.793Z,10.30
2019-03-20T01:35:35.380Z,10.30
2019-03-20T01:38:04.668Z,10.30
2019-03-20T01:40:33.194Z,10.30
2019-03-20T01:43:01.712Z,10.30
2019-03-20T01:45:30.270Z,10.30
2019-03-20T01:47:58.779Z,10.30
2019-03-20T01:50:27.323Z,10.20
2019-03-20T01:52:55.775Z,10.20
2019-03-20T01:55:24.360Z,10.20
2019-03-20T01:57:52.805Z,10.10
2019-03-20T02:00:21.348Z,10.10
2019-03-20T02:02:49.792Z,10.10
2019-03-20T02:05:18.304Z,10.10
2019-03-20T02:07:46.814Z,10.20
2019-03-20T02:10:16.231Z,10.10
2019-03-20T02:12:44.750Z,10.10
2019-03-20T02:15:15.730Z,10.20
2019-03-20T02:17:43.380Z,10.10
2019-03-20T02:20:14.901Z,10.10
2019-03-20T02:22:43.516Z,10.10
2019-03-20T02:25:12.895Z,10.00
2019-03-20T02:27:41.346Z,10.00
2019-03-20T02:30:20.485Z,9.90
2019-03-20T02:32:49.138Z,10.00
2019-03-20T02:35:17.590Z,9.90
2019-03-20T02:37:46.210Z,9.80
2019-03-20T02:40:15.350Z,9.80
2019-03-20T02:42:43.793Z,9.80
2019-03-20T02:45:14.764Z,9.80
2019-03-20T02:47:42.589Z,9.90
2019-03-20T02:50:12.799Z,9.90
2019-03-20T02:52:41.342Z,10.00
2019-03-20T02:55:10.779Z,10.00
2019-03-20T02:57:39.233Z,10.00
2019-03-20T03:00:10.935Z,10.00
2019-03-20T03:02:39.378Z,10.00
2019-03-20T03:05:08.757Z,10.00
2019-03-20T03:07:37.231Z,10.10
2019-03-20T03:10:08.712Z,10.00
2019-03-20T03:12:37.162Z,10.00
2019-03-20T03:15:07.666Z,10.00
2019-03-20T03:17:36.107Z,9.90
2019-03-20T03:20:09.152Z,9.90
2019-03-20T03:22:37.620Z,9.90
2019-03-20T03:25:08.303Z,9.90
2019-03-20T03:27:36.739Z,9.90
2019-03-20T03:30:11.242Z,9.90
2019-03-20T03:32:39.733Z,9.90
2019-03-20T03:35:08.357Z,10.00
2019-03-20T03:37:36.833Z,10.00
2019-03-20T03:40:08.482Z,10.00
2019-03-20T03:42:37.015Z,10.00
2019-03-20T03:45:13.885Z,10.00
2019-03-20T03:47:42.393Z,10.00
2019-03-20T03:50:11.586Z,10.00
2019-03-20T03:52:40.053Z,9.90
2019-03-20T03:55:11.603Z,9.90
2019-03-20T03:57:40.191Z,9.90
2019-03-20T04:00:18.959Z,9.90
2019-03-20T04:02:47.585Z,9.90
2019-03-20T04:05:16.100Z,9.90
2019-03-20T04:07:44.582Z,9.90
2019-03-20T04:10:15.007Z,9.90
2019-03-20T04:12:46.216Z,9.90
2019-03-20T04:15:15.617Z,9.90
2019-03-20T04:17:44.182Z,9.90
2019-03-20T04:20:17.419Z,9.90
2019-03-20T04:22:45.957Z,9.90
2019-03-20T04:25:14.692Z,9.90
2019-03-20T04:27:43.221Z,9.90
2019-03-20T04:30:14.763Z,9.80
2019-03-20T04:32:43.273Z,9.80
2019-03-20T04:35:12.120Z,9.80
2019-03-20T04:37:40.572Z,9.80
2019-03-20T04:40:16.906Z,9.80
2019-03-20T04:42:48.101Z,9.80
2019-03-20T04:45:17.154Z,9.70
2019-03-20T04:47:45.588Z,9.70
2019-03-20T04:50:17.176Z,9.70
2019-03-20T04:52:45.748Z,9.70
2019-03-20T04:55:15.016Z,9.70
2019-03-20T04:57:45.580Z,9.70
2019-03-20T05:00:17.864Z,9.70
2019-03-20T05:02:46.291Z,9.70
2019-03-20T05:05:14.766Z,9.70
2019-03-20T05:07:43.191Z,9.60
2019-03-20T05:10:16.612Z,9.60
2019-03-20T05:12:45.073Z,9.70
2019-03-20T05:15:14.151Z,9.70
2019-03-20T05:17:42.928Z,9.60
2019-03-20T05:20:19.135Z,9.60
2019-03-20T05:22:47.644Z,9.50
2019-03-20T05:25:16.156Z,9.60
2019-03-20T05:27:44.617Z,9.60
2019-03-20T05:30:14.891Z,9.60
2019-03-20T05:32:43.339Z,9.60
2019-03-20T05:35:11.888Z,9.60
2019-03-20T05:37:40.708Z,9.60
2019-03-20T05:40:14.495Z,9.60
2019-03-20T05:42:42.960Z,9.60
2019-03-20T05:45:14.116Z,9.60
2019-03-20T05:47:42.707Z,9.60
2019-03-20T05:50:13.173Z,9.60
2019-03-20T05:52:41.671Z,9.60
2019-03-20T05:55:10.272Z,9.60
2019-03-20T05:57:38.748Z,9.70
2019-03-20T06:00:16.226Z,9.70
2019-03-20T06:02:44.833Z,9.70
2019-03-20T06:05:13.409Z,9.70
2019-03-20T06:07:41.938Z,9.70
2019-03-20T06:10:14.784Z,9.70
2019-03-20T06:12:43.470Z,9.70
2019-03-20T06:15:12.451Z,9.70
2019-03-20T06:17:40.918Z,9.70
2019-03-20T06:20:11.400Z,9.80
2019-03-20T06:22:39.915Z,9.80
2019-03-20T06:25:12.973Z,9.80
2019-03-20T06:27:41.565Z,9.80
2019-03-20T06:30:16.151Z,9.90
2019-03-20T06:32:44.602Z,9.90
2019-03-20T06:35:13.672Z,9.90
2019-03-20T06:37:42.206Z,9.90
2019-03-20T06:40:13.571Z,9.90
2019-03-20T06:42:42.095Z,9.90
2019-03-20T06:45:12.776Z,10.00
2019-03-20T06:47:41.241Z,10.00
2019-03-20T06:50:14.673Z,10.00
2019-03-20T06:52:43.173Z,10.00
2019-03-20T06:55:11.765Z,10.00
2019-03-20T06:57:40.374Z,10.00
2019-03-20T07:00:17.781Z,10.10
2019-03-20T07:02:46.258Z,10.10
2019-03-20T07:05:36.928Z,10.10
2019-03-20T07:08:06.514Z,10.10
2019-03-20T07:10:43.776Z,10.10
2019-03-20T07:13:12.227Z,10.10
2019-03-20T07:15:40.688Z,10.20
2019-03-20T07:18:09.168Z,10.30
2019-03-20T07:20:37.627Z,10.30
2019-03-20T07:23:06.135Z,10.40
2019-03-20T07:25:34.603Z,10.40
2019-03-20T07:28:03.132Z,10.50
2019-03-20T07:30:31.669Z,10.60
2019-03-20T07:33:00.204Z,10.50
2019-03-20T07:35:28.670Z,10.60
2019-03-20T07:37:57.195Z,10.60
2019-03-20T07:40:25.679Z,10.60
2019-03-20T07:42:54.132Z,10.60
2019-03-20T07:48:50.123Z,10.70
2019-03-20T07:51:18.590Z,10.70
2019-03-20T07:53:47.044Z,10.70
2019-03-20T07:56:15.483Z,10.70
2019-03-20T07:58:43.953Z,10.80
2019-03-20T08:01:12.394Z,10.80
2019-03-20T08:03:40.839Z,10.80
2019-03-20T08:06:09.320Z,10.90
2019-03-20T08:08:37.783Z,10.90
2019-03-20T08:11:06.295Z,10.80
2019-03-20T08:13:34.769Z,10.80
2019-03-20T08:16:04.100Z,10.70
2019-03-20T08:18:32.709Z,10.80
2019-03-20T08:21:01.187Z,10.80
2019-03-20T08:23:29.637Z,10.70
2019-03-20T08:25:58.081Z,10.90
2019-03-20T08:28:26.557Z,10.90
2019-03-20T08:30:55.006Z,10.90
2019-03-20T08:33:23.452Z,10.90
2019-03-20T08:35:51.935Z,10.90
2019-03-20T08:38:20.372Z,10.90
2019-03-20T08:40:48.821Z,10.90
2019-03-20T08:43:17.342Z,10.90
2019-03-20T08:45:45.922Z,10.90
2019-03-20T08:48:14.440Z,10.90
2019-03-20T08:50:42.988Z,10.90
2019-03-20T08:53:11.435Z,11.00
2019-03-20T08:55:39.888Z,11.00
2019-03-20T08:58:08.505Z,11.10
2019-03-20T09:00:37.025Z,11.10
2019-03-20T09:03:05.643Z,11.10
2019-03-20T09:05:34.140Z,11.20
2019-03-20T09:08:02.577Z,11.20
2019-03-20T09:10:31.021Z,11.20
2019-03-20T09:12:59.509Z,11.20
2019-03-20T09:15:27.964Z,11.10
2019-03-20T09:17:56.424Z,11.10
2019-03-20T09:20:25.264Z,11.00
2019-03-20T09:22:53.713Z,11.00
2019-03-20T09:25:23.228Z,11.00
2019-03-20T09:27:51.755Z,11.10
2019-03-20T09:30:22.530Z,11.10
2019-03-20T09:32:51.116Z,11.10
2019-03-20T09:35:19.891Z,11.20
2019-03-20T09:37:52.390Z,11.20
2019-03-20T09:40:23.781Z,11.20
2019-03-20T09:42:52.507Z,11.20
2019-03-20T09:45:21.792Z,11.20
2019-03-20T09:47:50.485Z,11.20
2019-03-20T09:50:28.255Z,11.30
2019-03-20T09:52:56.696Z,11.30
2019-03-20T09:55:25.147Z,11.30
2019-03-20T09:57:53.624Z,11.40
2019-03-20T10:00:25.142Z,11.40
2019-03-20T10:02:53.749Z,11.50
2019-03-20T10:05:22.474Z,11.50
2019-03-20T10:07:51.192Z,11.60
2019-03-20T10:10:27.395Z,11.70
2019-03-20T10:12:55.839Z,11.80
2019-03-20T10:15:26.388Z,11.90
2019-03-20T10:17:54.863Z,11.90
2019-03-20T10:20:23.641Z,11.90
2019-03-20T10:22:52.428Z,11.80
2019-03-20T10:25:21.059Z,11.80
2019-03-20T10:27:51.810Z,11.80
2019-03-20T10:30:23.950Z,11.80
2019-03-20T10:32:52.497Z,11.90
2019-03-20T10:35:21.372Z,11.90
2019-03-20T10:37:49.887Z,12.00
2019-03-20T10:40:25.357Z,11.90
2019-03-20T10:42:53.946Z,12.00
2019-03-20T10:45:22.639Z,12.20
2019-03-20T10:48:02.895Z,12.40
2019-03-20T10:50:31.343Z,12.50
2019-03-20T10:52:59.786Z,12.50
2019-03-20T10:55:28.341Z,12.30
2019-03-20T10:57:56.795Z,12.30
2019-03-20T11:00:26.267Z,12.40
2019-03-20T11:02:54.875Z,12.60
2019-03-20T11:05:23.457Z,12.60
2019-03-20T11:07:51.968Z,12.50
2019-03-20T11:10:27.343Z,12.40
2019-03-20T11:12:55.859Z,12.30
2019-03-20T11:15:25.404Z,12.20
2019-03-20T11:17:53.868Z,12.30
2019-03-20T11:20:23.036Z,12.40
2019-03-20T11:22:51.620Z,12.40
2019-03-20T11:25:21.704Z,12.40
2019-03-20T11:27:50.170Z,12.50
2019-03-20T11:30:22.784Z,12.50
2019-03-20T11:32:51.244Z,12.40
2019-03-20T11:35:19.747Z,12.40
2019-03-20T11:37:48.269Z,12.50
2019-03-20T11:40:22.463Z,12.50
2019-03-20T11:42:51.063Z,12.50
2019-03-20T11:45:19.625Z,12.50
2019-03-20T11:47:48.172Z,12.50
2019-03-20T11:50:34.519Z,12.50
2019-03-20T11:53:03.120Z,12.60
2019-03-20T11:55:31.640Z,12.60
2019-03-20T11:58:00.078Z,12.40
2019-03-20T12:00:28.603Z,12.60
2019-03-20T12:02:57.120Z,12.50
2019-03-20T12:05:25.560Z,12.60
2019-03-20T12:07:54.099Z,12.70
2019-03-20T12:10:24.906Z,12.60
2019-03-20T12:12:53.407Z,12.60
2019-03-20T12:15:22.031Z,12.60
2019-03-20T12:17:50.478Z,12.50
2019-03-20T12:20:23.611Z,12.60
2019-03-20T12:22:52.422Z,12.40
2019-03-20T12:25:32.803Z,12.60
2019-03-20T12:28:01.464Z,12.60
2019-03-20T12:30:36.978Z,12.50
2019-03-20T12:33:05.977Z,12.50
2019-03-20T12:35:47.432Z,12.50
2019-03-20T12:38:15.971Z,12.50
2019-03-20T12:40:45.448Z,12.50
2019-03-20T12:43:14.027Z,12.60
2019-03-20T12:45:42.509Z,12.60
2019-03-20T12:48:15.968Z,12.70
2019-03-20T12:50:44.476Z,12.60
2019-03-20T12:53:15.754Z,12.60
2019-03-20T12:55:44.199Z,12.70
2019-03-20T12:58:12.646Z,12.60
2019-03-20T13:00:41.183Z,12.60
2019-03-20T13:03:09.633Z,12.70
2019-03-20T13:05:38.147Z,12.60
2019-03-20T13:08:06.629Z,12.70
2019-03-20T13:10:35.191Z,12.60
2019-03-20T13:13:03.978Z,12.50
2019-03-20T13:15:33.498Z,12.50
2019-03-20T13:18:02.114Z,12.60
2019-03-20T13:20:30.628Z,12.70
2019-03-20T13:23:16.744Z,12.70
2019-03-20T13:25:45.185Z,12.60
2019-03-20T13:28:13.620Z,12.70
2019-03-20T13:30:48.973Z,12.60
2019-03-20T13:33:25.164Z,12.60
2019-03-20T13:35:47.716Z,12.70
2019-03-20T13:38:16.330Z,12.80
2019-03-20T13:40:44.791Z,12.70
2019-03-20T13:43:13.299Z,12.70
2019-03-20T13:45:41.796Z,12.90
2019-03-20T13:48:10.243Z,13.10
2019-03-20T13:50:38.679Z,13.20
2019-03-20T13:53:07.143Z,13.30
2019-03-20T13:55:35.683Z,13.20
2019-03-20T13:58:04.264Z,13.20
2019-03-20T14:00:32.880Z,13.10
2019-03-20T14:03:01.386Z,13.20
2019-03-20T14:05:29.837Z,13.20
2019-03-20T14:07:58.296Z,13.20
2019-03-20T14:10:27.979Z,13.20
2019-03-20T14:12:56.424Z,13.30
2019-03-20T14:15:24.961Z,13.40
2019-03-20T14:17:53.475Z,13.50
2019-03-20T14:20:32.072Z,13.50
2019-03-20T14:23:00.659Z,13.30
2019-03-20T14:25:29.174Z,13.40
2019-03-20T14:27:57.927Z,13.40
2019-03-20T14:30:28.520Z,13.50
2019-03-20T14:32:57.095Z,13.50
2019-03-20T14:35:25.559Z,13.70
2019-03-20T14:37:54.135Z,13.60
2019-03-20T14:40:36.202Z,13.50
2019-03-20T14:43:01.339Z,13.40
2019-03-20T14:45:29.955Z,13.40
2019-03-20T14:47:58.497Z,13.40
2019-03-20T14:50:28.076Z,13.40
2019-03-20T14:52:56.531Z,13.60
2019-03-20T14:55:25.131Z,13.60
2019-03-20T14:57:53.573Z,13.70
2019-03-20T15:00:27.626Z,13.70
2019-03-20T15:02:56.162Z,13.60
2019-03-20T15:05:24.746Z,13.60
2019-03-20T15:07:53.338Z,13.50
2019-03-20T15:10:26.387Z,13.50
2019-03-20T15:12:55.478Z,13.60
2019-03-20T15:15:33.207Z,13.60
2019-03-20T15:18:01.724Z,13.50
2019-03-20T15:20:30.167Z,13.50
2019-03-20T15:22:58.636Z,13.40
2019-03-20T15:25:27.147Z,13.30
2019-03-20T15:27:55.597Z,13.40
2019-03-20T15:30:25.210Z,13.50
2019-03-20T15:32:53.743Z,13.60
2019-03-20T15:35:22.371Z,13.50
2019-03-20T15:37:50.925Z,13.60
2019-03-20T15:40:21.644Z,13.60
2019-03-20T15:42:50.105Z,13.50
2019-03-20T15:45:19.007Z,13.50
2019-03-20T15:47:47.454Z,13.40
2019-03-20T15:50:17.904Z,13.40
2019-03-20T15:52:46.465Z,13.30
2019-03-20T15:55:21.070Z,13.50
2019-03-20T15:57:49.584Z,13.40
2019-03-20T16:00:20.160Z,13.30
2019-03-20T16:02:50.252Z,13.30
2019-03-20T16:05:18.701Z,13.30
2019-03-20T16:07:47.178Z,13.20
2019-03-20T16:10:17.858Z,13.20
2019-03-20T16:12:46.367Z,13.20
2019-03-20T16:15:20.303Z,13.20
2019-03-20T16:17:48.877Z,13.30
2019-03-20T16:20:17.658Z,13.30
2019-03-20T16:22:46.283Z,13.40
2019-03-20T16:25:18.864Z,13.30
2019-03-20T16:27:47.449Z,13.40
2019-03-20T16:30:30.181Z,13.40
2019-03-20T16:32:58.687Z,13.40
2019-03-20T16:35:27.213Z,13.40
2019-03-20T16:37:55.764Z,13.40
2019-03-20T16:40:28.323Z,13.40
2019-03-20T16:42:56.827Z,13.40
2019-03-20T16:45:36.259Z,13.40
2019-03-20T16:48:05.637Z,13.40
2019-03-20T16:50:34.228Z,13.30
2019-03-20T16:53:02.833Z,13.20
2019-03-20T16:55:31.496Z,13.30
2019-03-20T16:57:59.959Z,13.40
2019-03-20T17:00:32.935Z,13.30
2019-03-20T17:03:01.460Z,13.40
2019-03-20T17:05:31.551Z,13.30
2019-03-20T17:08:00.176Z,13.30
2019-03-20T17:10:34.635Z,13.30
2019-03-20T17:13:03.213Z,13.30
2019-03-20T17:15:33.999Z,13.30
2019-03-20T17:18:02.516Z,13.30
2019-03-20T17:20:31.038Z,13.30
2019-03-20T17:22:59.744Z,13.30
2019-03-20T17:25:28.752Z,13.20
2019-03-20T17:27:57.248Z,13.20
2019-03-20T17:30:27.979Z,13.20
2019-03-20T17:32:56.504Z,13.20
2019-03-20T17:35:25.107Z,13.10
2019-03-20T17:37:53.635Z,13.10
2019-03-20T17:40:23.336Z,13.10
2019-03-20T17:42:51.848Z,13.10
2019-03-20T17:45:28.770Z,13.10
2019-03-20T17:47:57.351Z,13.00
2019-03-20T17:50:35.075Z,13.00
2019-03-20T17:53:04.865Z,13.00
2019-03-20T17:55:33.469Z,13.00
2019-03-20T17:58:02.097Z,13.00
2019-03-20T18:00:33.217Z,13.00
2019-03-20T18:03:01.648Z,12.90
2019-03-20T18:05:30.127Z,12.90
2019-03-20T18:07:58.576Z,12.80
2019-03-20T18:10:27.092Z,12.80
2019-03-20T18:12:55.677Z,12.80
2019-03-20T18:15:24.263Z,12.80
2019-03-20T18:17:54.268Z,12.80
2019-03-20T18:20:22.832Z,12.80
2019-03-20T18:22:51.289Z,12.70
2019-03-20T18:25:19.805Z,12.70
2019-03-20T18:27:48.401Z,12.70
2019-03-20T18:30:24.833Z,12.70
2019-03-20T18:32:53.377Z,12.70
2019-03-20T18:35:21.966Z,12.70
2019-03-20T18:37:50.855Z,12.70
2019-03-20T18:40:21.624Z,12.60
2019-03-20T18:42:50.065Z,12.60
2019-03-20T18:45:25.710Z,12.70
2019-03-20T18:47:54.215Z,12.60
2019-03-20T18:50:23.518Z,12.60
2019-03-20T18:52:52.115Z,12.60
2019-03-20T18:55:21.000Z,12.60
2019-03-20T18:57:49.668Z,12.60
2019-03-20T19:00:28.694Z,12.60
2019-03-20T19:03:03.008Z,12.60
2019-03-20T19:05:40.379Z,12.50
2019-03-20T19:08:08.902Z,12.50
2019-03-20T19:10:37.483Z,12.50
2019-03-20T19:13:06.093Z,12.50
2019-03-20T19:15:34.537Z,12.50
2019-03-20T19:18:02.994Z,12.50
2019-03-20T19:20:31.537Z,12.50
2019-03-20T19:23:00.043Z,12.50
2019-03-20T19:25:28.497Z,12.50
2019-03-20T19:27:57.052Z,12.50
2019-03-20T19:30:26.443Z,12.50
2019-03-20T19:32:54.955Z,12.50
2019-03-20T19:35:23.510Z,12.40
2019-03-20T19:37:51.950Z,12.50
2019-03-20T19:40:21.441Z,12.40
2019-03-20T19:42:50.147Z,12.40
2019-03-20T19:45:18.940Z,12.40
2019-03-20T19:47:47.398Z,12.40
2019-03-20T19:50:20.733Z,12.30
2019-03-20T19:52:49.235Z,12.30
2019-03-20T19:55:18.029Z,12.30
2019-03-20T19:57:46.580Z,12.30
2019-03-20T20:00:19.776Z,12.30
2019-03-20T20:02:48.264Z,12.30
2019-03-20T20:05:16.914Z,12.30
2019-03-20T20:07:45.433Z,12.30
2019-03-20T20:10:15.972Z,12.30
2019-03-20T20:12:44.504Z,12.20
2019-03-20T20:15:18.695Z,12.20
2019-03-20T20:17:47.278Z,12.20
2019-03-20T20:20:20.468Z,12.20
2019-03-20T20:22:48.914Z,12.30
2019-03-20T20:25:17.437Z,12.20
2019-03-20T20:27:45.980Z,12.20
2019-03-20T20:30:18.360Z,12.20
2019-03-20T20:32:46.874Z,12.20
2019-03-20T20:35:16.193Z,12.20
2019-03-20T20:37:45.518Z,12.20
2019-03-20T20:40:19.112Z,12.20
2019-03-20T20:42:47.672Z,12.20
2019-03-20T20:45:16.185Z,12.10
2019-03-20T20:47:44.777Z,12.10
2019-03-20T20:50:14.684Z,12.10
2019-03-20T20:52:43.395Z,12.00
2019-03-20T20:55:19.852Z,12.10
2019-03-20T20:57:48.531Z,12.00
2019-03-20T21:00:23.995Z,12.00
2019-03-20T21:02:52.929Z,12.00
2019-03-20T21:05:21.605Z,12.00
2019-03-20T21:07:50.205Z,12.00
2019-03-20T21:10:20.265Z,12.00
2019-03-20T21:12:56.147Z,11.90
2019-03-20T21:15:31.010Z,11.90
2019-03-20T21:18:08.341Z,11.90
2019-03-20T21:20:36.821Z,11.80
2019-03-20T21:23:30.649Z,11.80
2019-03-20T21:26:01.762Z,11.80
2019-03-20T21:28:47.316Z,11.80
2019-03-20T21:31:16.582Z,11.80
2019-03-20T21:34:23.323Z,11.80
2019-03-20T21:37:00.038Z,11.80
2019-03-20T21:39:28.677Z,11.80
2019-03-20T21:42:31.523Z,11.80
2019-03-20T21:45:19.437Z,11.80
2019-03-20T21:47:47.899Z,11.80
2019-03-20T21:50:38.747Z,11.80
2019-03-20T21:53:09.090Z,11.80
2019-03-20T21:56:15.051Z,11.70
2019-03-20T21:58:58.672Z,11.70
2019-03-20T22:02:01.479Z,11.70
2019-03-20T22:04:30.033Z,11.70
2019-03-20T22:07:09.619Z,11.70
2019-03-20T22:09:53.051Z,11.70
2019-03-20T22:12:27.512Z,11.70
2019-03-20T22:15:01.924Z,11.70
2019-03-20T22:17:59.000Z,11.70
2019-03-20T22:20:39.383Z,11.60
2019-03-20T22:23:27.473Z,11.60
2019-03-20T22:26:13.984Z,11.60
2019-03-20T22:29:08.078Z,11.60
2019-03-20T22:31:42.433Z,11.60
2019-03-20T22:34:37.767Z,11.50
2019-03-20T22:37:06.244Z,11.50
2019-03-20T22:39:53.883Z,11.50
2019-03-20T22:42:50.132Z,11.50
2019-03-20T22:45:33.355Z,11.50
2019-03-20T22:48:24.155Z,11.40
2019-03-20T22:51:16.406Z,11.40
2019-03-20T22:54:04.247Z,11.40
2019-03-20T22:56:44.578Z,11.40
2019-03-20T22:59:13.057Z,11.40
2019-03-20T23:01:50.142Z,11.40
2019-03-20T23:04:24.221Z,11.30
2019-03-20T23:06:52.676Z,11.30
2019-03-20T23:09:21.127Z,11.40
2019-03-20T23:11:49.612Z,11.30
2019-03-20T23:14:18.069Z,11.30
2019-03-20T23:16:46.530Z,11.30
2019-03-20T23:19:15.007Z,11.20
2019-03-20T23:21:43.594Z,11.20
2019-03-20T23:24:12.039Z,11.20
2019-03-20T23:26:40.523Z,11.20
2019-03-20T23:29:08.963Z,11.20
2019-03-20T23:31:37.419Z,11.10
2019-03-20T23:34:05.964Z,11.10
2019-03-20T23:36:34.411Z,11.10
2019-03-20T23:39:02.928Z,11.00
2019-03-20T23:41:31.469Z,11.00
2019-03-20T23:43:59.920Z,11.00
2019-03-20T23:46:28.371Z,11.00
2019-03-20T23:49:02.780Z,11.00
2019-03-20T23:51:33.476Z,11.00
2019-03-20T23:54:01.917Z,10.90
2019-03-20T23:56:33.431Z,10.90
2019-03-20T23:59:02.025Z,10.90
